sensor_id;sensor_type;location;lat;lon;timestamp;pressure;altitude;pressure_sealevel;temperature;humidity
55934;BME280;41839;41.386;2.082;2023-04-10T00:01:02;100260.94;;;17.05;55.63
55934;BME280;41839;41.386;2.082;2023-04-10T00:03:29;100262.91;;;17.14;55.23
55934;BME280;41839;41.386;2.082;2023-04-10T00:05:55;100238.50;;;17.09;55.17
55934;BME280;41839;41.386;2.082;2023-04-10T00:08:24;100254.41;;;17.19;54.60
55934;BME280;41839;41.386;2.082;2023-04-10T00:10:49;100258.66;;;17.16;54.55
55934;BME280;41839;41.386;2.082;2023-04-10T00:13:15;100261.31;;;17.19;54.13
55934;BME280;41839;41.386;2.082;2023-04-10T00:15:42;100257.88;;;17.21;54.44
55934;BME280;41839;41.386;2.082;2023-04-10T00:18:07;100252.59;;;17.17;54.20
55934;BME280;41839;41.386;2.082;2023-04-10T00:20:33;100255.22;;;17.18;54.20
55934;BME280;41839;41.386;2.082;2023-04-10T00:22:58;100250.06;;;17.20;53.90
55934;BME280;41839;41.386;2.082;2023-04-10T00:25:24;100247.66;;;17.27;53.96
55934;BME280;41839;41.386;2.082;2023-04-10T00:27:51;100231.88;;;17.20;53.75
55934;BME280;41839;41.386;2.082;2023-04-10T00:30:18;100247.78;;;17.34;53.60
55934;BME280;41839;41.386;2.082;2023-04-10T00:32:43;100242.72;;;17.38;53.82
55934;BME280;41839;41.386;2.082;2023-04-10T00:35:09;100240.13;;;17.40;53.36
55934;BME280;41839;41.386;2.082;2023-04-10T00:37:35;100236.59;;;17.36;53.54
55934;BME280;41839;41.386;2.082;2023-04-10T00:40:00;100237.63;;;17.43;53.69
55934;BME280;41839;41.386;2.082;2023-04-10T00:42:26;100230.81;;;17.48;53.15
55934;BME280;41839;41.386;2.082;2023-04-10T00:44:52;100236.88;;;17.48;53.01
55934;BME280;41839;41.386;2.082;2023-04-10T00:47:17;100226.56;;;17.51;52.75
55934;BME280;41839;41.386;2.082;2023-04-10T00:49:43;100238.69;;;17.52;52.80
55934;BME280;41839;41.386;2.082;2023-04-10T00:52:09;100231.88;;;17.56;52.20
55934;BME280;41839;41.386;2.082;2023-04-10T00:54:36;100226.53;;;17.50;52.27
55934;BME280;41839;41.386;2.082;2023-04-10T00:57:02;100232.56;;;17.49;52.71
55934;BME280;41839;41.386;2.082;2023-04-10T00:59:32;100234.28;;;17.48;52.52
55934;BME280;41839;41.386;2.082;2023-04-10T01:01:58;100215.78;;;17.36;52.61
55934;BME280;41839;41.386;2.082;2023-04-10T01:04:24;100216.72;;;17.38;52.86
55934;BME280;41839;41.386;2.082;2023-04-10T01:15:24;100209.06;;;17.44;51.60
55934;BME280;41839;41.386;2.082;2023-04-10T01:18:00;100198.66;;;17.44;51.52
55934;BME280;41839;41.386;2.082;2023-04-10T01:20:31;100195.41;;;17.53;51.36
55934;BME280;41839;41.386;2.082;2023-04-10T01:31:16;100187.44;;;17.47;51.63
55934;BME280;41839;41.386;2.082;2023-04-10T01:33:48;100179.66;;;17.47;51.46
55934;BME280;41839;41.386;2.082;2023-04-10T01:36:23;100187.38;;;17.44;51.53
55934;BME280;41839;41.386;2.082;2023-04-10T01:38:52;100189.00;;;17.40;52.09
55934;BME280;41839;41.386;2.082;2023-04-10T01:41:19;100189.06;;;17.42;52.63
55934;BME280;41839;41.386;2.082;2023-04-10T01:43:49;100187.38;;;17.44;52.83
55934;BME280;41839;41.386;2.082;2023-04-10T01:46:18;100188.69;;;17.25;54.00
55934;BME280;41839;41.386;2.082;2023-04-10T01:48:45;100179.03;;;17.21;54.55
55934;BME280;41839;41.386;2.082;2023-04-10T01:51:12;100177.22;;;17.18;54.59
55934;BME280;41839;41.386;2.082;2023-04-10T01:53:39;100179.81;;;17.17;54.74
55934;BME280;41839;41.386;2.082;2023-04-10T01:56:07;100169.41;;;17.17;54.75
55934;BME280;41839;41.386;2.082;2023-04-10T01:58:34;100163.41;;;17.19;54.86
55934;BME280;41839;41.386;2.082;2023-04-10T02:01:00;100150.34;;;17.16;54.73
55934;BME280;41839;41.386;2.082;2023-04-10T02:03:26;100140.41;;;17.00;54.34
55934;BME280;41839;41.386;2.082;2023-04-10T02:06:13;100156.19;;;17.08;54.39
55934;BME280;41839;41.386;2.082;2023-04-10T02:08:54;100153.63;;;17.09;54.46
55934;BME280;41839;41.386;2.082;2023-04-10T02:14:10;100153.31;;;16.97;54.71
55934;BME280;41839;41.386;2.082;2023-04-10T02:16:41;100155.19;;;17.01;54.49
55934;BME280;41839;41.386;2.082;2023-04-10T02:19:09;100122.84;;;16.90;54.02
55934;BME280;41839;41.386;2.082;2023-04-10T02:21:35;100134.41;;;17.02;53.91
55934;BME280;41839;41.386;2.082;2023-04-10T02:24:02;100120.38;;;16.94;53.54
55934;BME280;41839;41.386;2.082;2023-04-10T02:26:27;100130.00;;;17.00;53.54
55934;BME280;41839;41.386;2.082;2023-04-10T02:28:53;100143.22;;;17.09;53.51
55934;BME280;41839;41.386;2.082;2023-04-10T02:31:18;100139.81;;;17.10;52.92
55934;BME280;41839;41.386;2.082;2023-04-10T02:33:44;100125.72;;;17.00;52.42
55934;BME280;41839;41.386;2.082;2023-04-10T02:36:09;100147.00;;;17.22;52.73
55934;BME280;41839;41.386;2.082;2023-04-10T02:38:35;100145.31;;;17.24;52.39
55934;BME280;41839;41.386;2.082;2023-04-10T02:41:00;100143.66;;;17.27;52.49
55934;BME280;41839;41.386;2.082;2023-04-10T02:43:26;100132.22;;;17.19;52.73
55934;BME280;41839;41.386;2.082;2023-04-10T02:45:52;100143.69;;;17.29;53.01
55934;BME280;41839;41.386;2.082;2023-04-10T02:48:17;100143.84;;;17.35;53.66
55934;BME280;41839;41.386;2.082;2023-04-10T02:50:43;100082.34;;;16.98;53.67
55934;BME280;41839;41.386;2.082;2023-04-10T02:53:15;100135.09;;;17.32;54.16
55934;BME280;41839;41.386;2.082;2023-04-10T02:55:40;100140.38;;;17.35;53.95
55934;BME280;41839;41.386;2.082;2023-04-10T02:58:06;100133.38;;;17.32;54.43
55934;BME280;41839;41.386;2.082;2023-04-10T03:00:32;100141.31;;;17.38;54.59
55934;BME280;41839;41.386;2.082;2023-04-10T03:02:58;100121.19;;;17.31;54.54
55934;BME280;41839;41.386;2.082;2023-04-10T03:05:23;100142.25;;;17.42;54.66
55934;BME280;41839;41.386;2.082;2023-04-10T03:07:48;100145.59;;;17.36;54.70
55934;BME280;41839;41.386;2.082;2023-04-10T03:10:14;100132.50;;;17.33;54.99
55934;BME280;41839;41.386;2.082;2023-04-10T03:12:40;100142.13;;;17.36;55.08
55934;BME280;41839;41.386;2.082;2023-04-10T03:15:05;100134.38;;;17.39;54.79
55934;BME280;41839;41.386;2.082;2023-04-10T03:17:31;100134.44;;;17.42;54.51
55934;BME280;41839;41.386;2.082;2023-04-10T03:19:57;100132.38;;;17.27;54.88
55934;BME280;41839;41.386;2.082;2023-04-10T03:22:22;100110.47;;;17.16;54.52
55934;BME280;41839;41.386;2.082;2023-04-10T03:24:48;100136.41;;;17.14;55.23
55934;BME280;41839;41.386;2.082;2023-04-10T03:27:13;100113.53;;;16.98;55.02
55934;BME280;41839;41.386;2.082;2023-04-10T03:29:39;100146.59;;;17.05;55.10
55934;BME280;41839;41.386;2.082;2023-04-10T03:32:04;100132.69;;;17.03;54.89
55934;BME280;41839;41.386;2.082;2023-04-10T03:34:30;100137.94;;;17.04;54.29
55934;BME280;41839;41.386;2.082;2023-04-10T03:36:55;100092.91;;;16.69;54.26
55934;BME280;41839;41.386;2.082;2023-04-10T03:39:21;100129.19;;;17.01;53.85
55934;BME280;41839;41.386;2.082;2023-04-10T03:41:47;100132.53;;;16.97;53.55
55934;BME280;41839;41.386;2.082;2023-04-10T03:44:13;100133.50;;;17.00;52.53
55934;BME280;41839;41.386;2.082;2023-04-10T03:46:38;100128.84;;;16.87;52.86
55934;BME280;41839;41.386;2.082;2023-04-10T03:49:04;100137.72;;;16.97;53.00
55934;BME280;41839;41.386;2.082;2023-04-10T03:51:30;100124.66;;;16.94;53.16
55934;BME280;41839;41.386;2.082;2023-04-10T03:53:55;100135.34;;;17.04;52.62
55934;BME280;41839;41.386;2.082;2023-04-10T03:56:21;100128.38;;;17.03;50.58
55934;BME280;41839;41.386;2.082;2023-04-10T03:58:46;100110.13;;;17.02;50.46
55934;BME280;41839;41.386;2.082;2023-04-10T04:01:12;100094.41;;;16.96;50.03
55934;BME280;41839;41.386;2.082;2023-04-10T04:03:38;100125.16;;;17.14;49.49
55934;BME280;41839;41.386;2.082;2023-04-10T04:06:03;100101.63;;;17.08;49.51
55934;BME280;41839;41.386;2.082;2023-04-10T04:08:29;100115.75;;;17.19;49.54
55934;BME280;41839;41.386;2.082;2023-04-10T04:10:54;100127.75;;;17.14;50.43
55934;BME280;41839;41.386;2.082;2023-04-10T04:13:20;100132.06;;;17.13;50.35
55934;BME280;41839;41.386;2.082;2023-04-10T04:15:45;100123.28;;;17.08;50.02
55934;BME280;41839;41.386;2.082;2023-04-10T04:18:12;100124.00;;;17.02;50.17
55934;BME280;41839;41.386;2.082;2023-04-10T04:20:37;100124.09;;;17.05;50.66
55934;BME280;41839;41.386;2.082;2023-04-10T04:23:03;100128.41;;;17.05;51.03
55934;BME280;41839;41.386;2.082;2023-04-10T04:25:28;100127.38;;;16.98;51.54
55934;BME280;41839;41.386;2.082;2023-04-10T04:27:54;100120.25;;;16.90;52.14
55934;BME280;41839;41.386;2.082;2023-04-10T04:30:19;100120.31;;;16.93;51.77
55934;BME280;41839;41.386;2.082;2023-04-10T04:32:45;100117.56;;;16.85;51.89
55934;BME280;41839;41.386;2.082;2023-04-10T04:35:10;100123.53;;;16.82;52.09
55934;BME280;41839;41.386;2.082;2023-04-10T04:37:36;100118.19;;;16.76;52.49
55934;BME280;41839;41.386;2.082;2023-04-10T04:40:01;100120.06;;;16.82;53.14
55934;BME280;41839;41.386;2.082;2023-04-10T04:42:27;100120.88;;;16.79;52.87
55934;BME280;41839;41.386;2.082;2023-04-10T04:44:53;100119.16;;;16.81;52.91
55934;BME280;41839;41.386;2.082;2023-04-10T04:47:18;100111.28;;;16.77;52.22
55934;BME280;41839;41.386;2.082;2023-04-10T04:49:44;100114.81;;;16.80;51.65
55934;BME280;41839;41.386;2.082;2023-04-10T04:52:09;100119.94;;;16.77;51.06
55934;BME280;41839;41.386;2.082;2023-04-10T04:54:35;100129.47;;;16.78;50.72
55934;BME280;41839;41.386;2.082;2023-04-10T04:57:01;100126.09;;;16.81;50.61
55934;BME280;41839;41.386;2.082;2023-04-10T04:59:26;100127.81;;;16.80;50.27
55934;BME280;41839;41.386;2.082;2023-04-10T05:01:52;100120.91;;;16.81;50.20
55934;BME280;41839;41.386;2.082;2023-04-10T05:04:17;100112.03;;;16.74;50.09
55934;BME280;41839;41.386;2.082;2023-04-10T05:06:44;100133.28;;;16.91;49.83
55934;BME280;41839;41.386;2.082;2023-04-10T05:09:10;100136.94;;;16.99;49.46
55934;BME280;41839;41.386;2.082;2023-04-10T05:11:35;100112.31;;;16.83;49.58
55934;BME280;41839;41.386;2.082;2023-04-10T05:14:01;100128.25;;;16.99;49.22
55934;BME280;41839;41.386;2.082;2023-04-10T05:16:26;100108.25;;;16.95;48.95
55934;BME280;41839;41.386;2.082;2023-04-10T05:18:52;100124.94;;;17.06;48.59
55934;BME280;41839;41.386;2.082;2023-04-10T05:21:17;100110.25;;;17.07;48.61
55934;BME280;41839;41.386;2.082;2023-04-10T05:23:43;100133.97;;;17.20;48.72
55934;BME280;41839;41.386;2.082;2023-04-10T05:26:08;100127.56;;;17.06;48.94
55934;BME280;41839;41.386;2.082;2023-04-10T05:28:34;100144.47;;;16.89;49.56
55934;BME280;41839;41.386;2.082;2023-04-10T05:30:59;100147.03;;;16.87;49.29
55934;BME280;41839;41.386;2.082;2023-04-10T05:33:25;100122.22;;;16.65;49.18
55934;BME280;41839;41.386;2.082;2023-04-10T05:35:51;100159.06;;;16.83;49.15
55934;BME280;41839;41.386;2.082;2023-04-10T05:38:17;100166.06;;;16.86;49.02
55934;BME280;41839;41.386;2.082;2023-04-10T05:40:46;100167.94;;;16.92;49.25
55934;BME280;41839;41.386;2.082;2023-04-10T05:43:12;100173.56;;;16.75;49.32
55934;BME280;41839;41.386;2.082;2023-04-10T05:45:37;100190.16;;;16.80;48.68
55934;BME280;41839;41.386;2.082;2023-04-10T05:48:03;100181.38;;;16.75;49.13
55934;BME280;41839;41.386;2.082;2023-04-10T05:50:28;100175.25;;;16.73;49.72
55934;BME280;41839;41.386;2.082;2023-04-10T05:52:53;100186.25;;;16.63;49.82
55934;BME280;41839;41.386;2.082;2023-04-10T05:55:19;100185.47;;;16.67;50.11
55934;BME280;41839;41.386;2.082;2023-04-10T05:57:45;100178.69;;;16.72;49.94
55934;BME280;41839;41.386;2.082;2023-04-10T06:00:10;100185.75;;;16.76;49.88
55934;BME280;41839;41.386;2.082;2023-04-10T06:02:36;100194.59;;;16.85;49.68
55934;BME280;41839;41.386;2.082;2023-04-10T06:05:02;100197.41;;;16.92;49.33
55934;BME280;41839;41.386;2.082;2023-04-10T06:07:27;100180.13;;;16.94;49.46
55934;BME280;41839;41.386;2.082;2023-04-10T06:09:52;100183.53;;;16.92;49.43
55934;BME280;41839;41.386;2.082;2023-04-10T06:12:18;100180.94;;;16.92;49.56
55934;BME280;41839;41.386;2.082;2023-04-10T06:14:43;100175.88;;;16.98;49.60
55934;BME280;41839;41.386;2.082;2023-04-10T06:17:08;100171.72;;;17.04;49.48
55934;BME280;41839;41.386;2.082;2023-04-10T06:19:34;100171.63;;;17.01;49.54
55934;BME280;41839;41.386;2.082;2023-04-10T06:21:59;100168.34;;;17.09;48.89
55934;BME280;41839;41.386;2.082;2023-04-10T06:24:25;100177.34;;;17.23;48.84
55934;BME280;41839;41.386;2.082;2023-04-10T06:26:50;100177.59;;;17.34;48.37
55934;BME280;41839;41.386;2.082;2023-04-10T06:29:15;100188.78;;;17.29;48.37
55934;BME280;41839;41.386;2.082;2023-04-10T06:31:41;100209.13;;;17.11;48.82
55934;BME280;41839;41.386;2.082;2023-04-10T06:34:06;100217.41;;;16.96;50.04
55934;BME280;41839;41.386;2.082;2023-04-10T06:36:31;100206.03;;;16.91;49.74
55934;BME280;41839;41.386;2.082;2023-04-10T06:38:57;100201.09;;;17.02;48.16
55934;BME280;41839;41.386;2.082;2023-04-10T06:41:23;100190.44;;;17.27;47.26
55934;BME280;41839;41.386;2.082;2023-04-10T06:43:48;100176.34;;;17.54;45.32
55934;BME280;41839;41.386;2.082;2023-04-10T06:46:13;100194.91;;;17.71;44.71
55934;BME280;41839;41.386;2.082;2023-04-10T06:48:40;100201.41;;;17.90;43.99
55934;BME280;41839;41.386;2.082;2023-04-10T06:51:05;100206.88;;;18.02;43.58
55934;BME280;41839;41.386;2.082;2023-04-10T06:53:31;100205.56;;;18.21;43.92
55934;BME280;41839;41.386;2.082;2023-04-10T06:55:56;100209.22;;;18.31;43.35
55934;BME280;41839;41.386;2.082;2023-04-10T06:58:21;100212.88;;;18.40;43.10
55934;BME280;41839;41.386;2.082;2023-04-10T07:00:48;100219.97;;;18.49;42.72
55934;BME280;41839;41.386;2.082;2023-04-10T07:03:13;100212.28;;;18.55;43.41
55934;BME280;41839;41.386;2.082;2023-04-10T07:05:39;100223.72;;;18.63;42.75
55934;BME280;41839;41.386;2.082;2023-04-10T07:08:04;100210.50;;;18.54;43.12
55934;BME280;41839;41.386;2.082;2023-04-10T07:10:30;100205.34;;;18.56;43.33
55934;BME280;41839;41.386;2.082;2023-04-10T07:12:55;100202.88;;;18.63;43.32
55934;BME280;41839;41.386;2.082;2023-04-10T07:15:22;100202.91;;;18.66;44.16
55934;BME280;41839;41.386;2.082;2023-04-10T07:17:48;100204.75;;;18.71;43.27
55934;BME280;41839;41.386;2.082;2023-04-10T07:20:13;100203.78;;;18.65;43.80
55934;BME280;41839;41.386;2.082;2023-04-10T07:22:38;100206.16;;;18.55;44.11
55934;BME280;41839;41.386;2.082;2023-04-10T07:25:04;100202.53;;;18.45;44.75
55934;BME280;41839;41.386;2.082;2023-04-10T07:27:31;100192.72;;;18.32;45.65
55934;BME280;41839;41.386;2.082;2023-04-10T07:29:56;100191.88;;;18.33;45.67
55934;BME280;41839;41.386;2.082;2023-04-10T07:32:22;100192.03;;;18.40;45.67
55934;BME280;41839;41.386;2.082;2023-04-10T07:34:47;100206.47;;;18.25;46.19
55934;BME280;41839;41.386;2.082;2023-04-10T07:37:13;100215.91;;;18.19;46.65
55934;BME280;41839;41.386;2.082;2023-04-10T07:39:38;100216.03;;;18.24;46.56
55934;BME280;41839;41.386;2.082;2023-04-10T07:42:04;100218.28;;;18.07;46.72
55934;BME280;41839;41.386;2.082;2023-04-10T07:44:29;100221.47;;;17.94;47.11
55934;BME280;41839;41.386;2.082;2023-04-10T07:46:55;100238.16;;;18.04;47.00
55934;BME280;41839;41.386;2.082;2023-04-10T07:49:20;100248.63;;;18.07;47.40
55934;BME280;41839;41.386;2.082;2023-04-10T07:51:46;100251.00;;;18.38;46.55
55934;BME280;41839;41.386;2.082;2023-04-10T07:54:12;100261.22;;;18.72;46.15
55934;BME280;41839;41.386;2.082;2023-04-10T07:56:37;100262.75;;;19.07;45.09
55934;BME280;41839;41.386;2.082;2023-04-10T07:59:02;100261.88;;;19.05;44.58
55934;BME280;41839;41.386;2.082;2023-04-10T08:01:28;100255.34;;;18.82;44.70
55934;BME280;41839;41.386;2.082;2023-04-10T08:03:54;100250.78;;;18.72;44.80
55934;BME280;41839;41.386;2.082;2023-04-10T08:06:22;100257.69;;;18.68;45.05
55934;BME280;41839;41.386;2.082;2023-04-10T08:08:47;100248.88;;;18.63;45.57
55934;BME280;41839;41.386;2.082;2023-04-10T08:13:47;100236.50;;;18.51;44.88
55934;BME280;41839;41.386;2.082;2023-04-10T08:16:13;100237.66;;;18.67;44.36
55934;BME280;41839;41.386;2.082;2023-04-10T08:18:38;100242.44;;;18.88;42.97
55934;BME280;41839;41.386;2.082;2023-04-10T08:21:04;100238.25;;;18.96;41.89
55934;BME280;41839;41.386;2.082;2023-04-10T08:23:29;100234.38;;;19.26;41.76
55934;BME280;41839;41.386;2.082;2023-04-10T08:25:55;100242.53;;;19.46;41.03
55934;BME280;41839;41.386;2.082;2023-04-10T08:28:20;100241.91;;;19.62;40.66
55934;BME280;41839;41.386;2.082;2023-04-10T08:30:45;100244.13;;;19.94;40.44
55934;BME280;41839;41.386;2.082;2023-04-10T08:33:10;100249.66;;;20.17;39.46
55934;BME280;41839;41.386;2.082;2023-04-10T08:35:36;100261.13;;;20.31;39.19
55934;BME280;41839;41.386;2.082;2023-04-10T08:38:01;100264.00;;;20.51;39.01
55934;BME280;41839;41.386;2.082;2023-04-10T08:40:26;100259.72;;;20.55;38.99
55934;BME280;41839;41.386;2.082;2023-04-10T08:42:52;100270.88;;;20.41;39.07
55934;BME280;41839;41.386;2.082;2023-04-10T08:45:17;100272.56;;;20.38;39.17
55934;BME280;41839;41.386;2.082;2023-04-10T08:47:42;100270.00;;;20.41;38.72
55934;BME280;41839;41.386;2.082;2023-04-10T08:50:09;100269.28;;;20.53;38.95
55934;BME280;41839;41.386;2.082;2023-04-10T08:52:35;100268.56;;;20.66;38.31
55934;BME280;41839;41.386;2.082;2023-04-10T08:55:04;100279.69;;;20.51;38.15
55934;BME280;41839;41.386;2.082;2023-04-10T08:57:32;100273.69;;;20.57;37.44
55934;BME280;41839;41.386;2.082;2023-04-10T08:59:57;100261.25;;;20.40;37.18
55934;BME280;41839;41.386;2.082;2023-04-10T09:02:23;100278.75;;;20.46;36.35
55934;BME280;41839;41.386;2.082;2023-04-10T09:04:50;100277.28;;;20.66;36.79
55934;BME280;41839;41.386;2.082;2023-04-10T09:07:17;100278.16;;;20.68;37.66
55934;BME280;41839;41.386;2.082;2023-04-10T09:09:43;100292.31;;;20.86;36.50
55934;BME280;41839;41.386;2.082;2023-04-10T09:12:09;100282.97;;;21.09;35.69
55934;BME280;41839;41.386;2.082;2023-04-10T09:14:35;100278.50;;;21.01;34.50
55934;BME280;41839;41.386;2.082;2023-04-10T09:19:43;100297.03;;;21.24;34.72
55934;BME280;41839;41.386;2.082;2023-04-10T09:22:09;100295.41;;;21.36;34.11
55934;BME280;41839;41.386;2.082;2023-04-10T09:24:36;100302.56;;;21.53;34.43
55934;BME280;41839;41.386;2.082;2023-04-10T09:27:03;100263.28;;;21.54;34.13
55934;BME280;41839;41.386;2.082;2023-04-10T09:29:46;100298.25;;;21.64;33.43
55934;BME280;41839;41.386;2.082;2023-04-10T09:32:35;100305.09;;;21.44;33.52
55934;BME280;41839;41.386;2.082;2023-04-10T09:35:01;100306.19;;;21.73;33.06
55934;BME280;41839;41.386;2.082;2023-04-10T09:37:31;100302.78;;;21.83;32.96
55934;BME280;41839;41.386;2.082;2023-04-10T09:39:58;100302.59;;;21.59;32.71
55934;BME280;41839;41.386;2.082;2023-04-10T09:42:31;100306.22;;;21.75;32.89
55934;BME280;41839;41.386;2.082;2023-04-10T09:44:58;100310.63;;;21.85;32.65
55934;BME280;41839;41.386;2.082;2023-04-10T09:47:24;100311.78;;;22.24;32.19
55934;BME280;41839;41.386;2.082;2023-04-10T09:49:51;100313.50;;;22.22;32.11
55934;BME280;41839;41.386;2.082;2023-04-10T09:52:22;100318.66;;;22.09;32.45
55934;BME280;41839;41.386;2.082;2023-04-10T09:54:49;100312.66;;;22.27;32.01
55934;BME280;41839;41.386;2.082;2023-04-10T09:57:16;100320.53;;;22.29;31.46
55934;BME280;41839;41.386;2.082;2023-04-10T09:59:52;100318.78;;;22.29;41.00
55934;BME280;41839;41.386;2.082;2023-04-10T10:02:20;100322.38;;;22.54;41.17
55934;BME280;41839;41.386;2.082;2023-04-10T10:04:47;100322.53;;;22.93;43.21
55934;BME280;41839;41.386;2.082;2023-04-10T10:07:15;100320.84;;;23.18;42.66
55934;BME280;41839;41.386;2.082;2023-04-10T10:09:41;100312.97;;;23.18;32.44
55934;BME280;41839;41.386;2.082;2023-04-10T10:12:09;100295.47;;;23.01;34.09
55934;BME280;41839;41.386;2.082;2023-04-10T10:14:44;100302.47;;;23.19;44.14
55934;BME280;41839;41.386;2.082;2023-04-10T10:17:13;100324.38;;;23.46;43.99
55934;BME280;41839;41.386;2.082;2023-04-10T10:20:00;100322.63;;;23.56;37.54
55934;BME280;41839;41.386;2.082;2023-04-10T10:22:27;100323.50;;;23.61;43.94
55934;BME280;41839;41.386;2.082;2023-04-10T10:24:53;100314.75;;;23.57;38.01
55934;BME280;41839;41.386;2.082;2023-04-10T10:27:22;100318.25;;;23.85;42.52
55934;BME280;41839;41.386;2.082;2023-04-10T10:29:49;100311.22;;;23.90;42.91
55934;BME280;41839;41.386;2.082;2023-04-10T10:32:17;100320.88;;;23.84;42.22
55934;BME280;41839;41.386;2.082;2023-04-10T10:34:43;100321.75;;;23.86;41.19
55934;BME280;41839;41.386;2.082;2023-04-10T10:37:10;100322.63;;;23.80;42.62
55934;BME280;41839;41.386;2.082;2023-04-10T10:42:49;100319.09;;;23.60;43.01
55934;BME280;41839;41.386;2.082;2023-04-10T10:45:22;100316.50;;;23.49;41.71
55934;BME280;41839;41.386;2.082;2023-04-10T10:47:51;100315.59;;;23.47;41.85
55934;BME280;41839;41.386;2.082;2023-04-10T10:50:17;100306.88;;;23.39;43.11
55934;BME280;41839;41.386;2.082;2023-04-10T10:58:01;100334.00;;;23.62;43.58
55934;BME280;41839;41.386;2.082;2023-04-10T11:05:59;100312.09;;;23.08;40.58
55934;BME280;41839;41.386;2.082;2023-04-10T11:08:43;100309.38;;;22.91;41.49
55934;BME280;41839;41.386;2.082;2023-04-10T11:11:24;100311.13;;;22.88;40.49
55934;BME280;41839;41.386;2.082;2023-04-10T11:16:18;100327.88;;;23.53;43.13
55934;BME280;41839;41.386;2.082;2023-04-10T11:21:14;100307.72;;;23.18;44.02
55934;BME280;41839;41.386;2.082;2023-04-10T11:31:31;100282.38;;;23.11;43.05
55934;BME280;41839;41.386;2.082;2023-04-10T11:36:23;100296.34;;;23.43;43.51
55934;BME280;41839;41.386;2.082;2023-04-10T11:38:59;100290.25;;;23.38;43.52
55934;BME280;41839;41.386;2.082;2023-04-10T11:41:35;100290.25;;;23.38;42.11
55934;BME280;41839;41.386;2.082;2023-04-10T11:44:03;100312.97;;;23.53;42.80
55934;BME280;41839;41.386;2.082;2023-04-10T11:46:30;100297.22;;;23.56;41.98
55934;BME280;41839;41.386;2.082;2023-04-10T11:49:00;100306.00;;;23.51;43.55
55934;BME280;41839;41.386;2.082;2023-04-10T11:51:26;100273.63;;;23.39;43.79
55934;BME280;41839;41.386;2.082;2023-04-10T11:54:15;100293.75;;;23.33;41.38
55934;BME280;41839;41.386;2.082;2023-04-10T11:56:42;100302.50;;;23.36;44.13
55934;BME280;41839;41.386;2.082;2023-04-10T11:59:09;100291.97;;;23.29;42.59
55934;BME280;41839;41.386;2.082;2023-04-10T12:01:44;100293.75;;;23.42;41.87
55934;BME280;41839;41.386;2.082;2023-04-10T12:04:16;100299.00;;;23.51;43.37
55934;BME280;41839;41.386;2.082;2023-04-10T12:06:50;100293.72;;;23.43;43.13
55934;BME280;41839;41.386;2.082;2023-04-10T12:09:18;100296.34;;;23.25;43.37
55934;BME280;41839;41.386;2.082;2023-04-10T12:14:18;100271.81;;;22.94;44.67
55934;BME280;41839;41.386;2.082;2023-04-10T12:16:44;100257.84;;;23.02;40.40
55934;BME280;41839;41.386;2.082;2023-04-10T12:19:11;100255.25;;;23.01;43.54
55934;BME280;41839;41.386;2.082;2023-04-10T12:21:38;100275.34;;;23.07;41.25
55934;BME280;41839;41.386;2.082;2023-04-10T12:24:06;100273.59;;;23.09;39.93
55934;BME280;41839;41.386;2.082;2023-04-10T12:26:31;100280.59;;;23.08;40.48
55934;BME280;41839;41.386;2.082;2023-04-10T12:28:57;100266.59;;;22.98;42.12
55934;BME280;41839;41.386;2.082;2023-04-10T12:31:30;100277.97;;;22.96;43.50
55934;BME280;41839;41.386;2.082;2023-04-10T12:33:57;100267.47;;;23.04;40.44
55934;BME280;41839;41.386;2.082;2023-04-10T12:36:24;100280.56;;;23.00;41.71
55934;BME280;41839;41.386;2.082;2023-04-10T12:38:56;100275.25;;;22.82;42.48
55934;BME280;41839;41.386;2.082;2023-04-10T12:41:27;100284.91;;;22.83;41.61
55934;BME280;41839;41.386;2.082;2023-04-10T12:44:08;100272.63;;;22.73;43.10
55934;BME280;41839;41.386;2.082;2023-04-10T12:46:34;100281.38;;;22.67;44.30
55934;BME280;41839;41.386;2.082;2023-04-10T12:49:16;100282.25;;;22.75;43.38
55934;BME280;41839;41.386;2.082;2023-04-10T12:51:46;100284.03;;;22.84;42.16
55934;BME280;41839;41.386;2.082;2023-04-10T12:56:56;100282.22;;;22.65;43.80
55934;BME280;41839;41.386;2.082;2023-04-10T12:59:22;100287.47;;;22.69;43.21
55934;BME280;41839;41.386;2.082;2023-04-10T13:01:48;100296.22;;;22.76;43.61
55934;BME280;41839;41.386;2.082;2023-04-10T13:04:14;100266.50;;;22.65;43.70
55934;BME280;41839;41.386;2.082;2023-04-10T13:06:43;100309.41;;;22.90;42.19
55934;BME280;41839;41.386;2.082;2023-04-10T13:09:11;100312.03;;;22.93;43.05
55934;BME280;41839;41.386;2.082;2023-04-10T13:11:36;100310.25;;;22.84;43.41
55934;BME280;41839;41.386;2.082;2023-04-10T13:14:02;100305.03;;;22.83;42.67
55934;BME280;41839;41.386;2.082;2023-04-10T13:16:27;100274.34;;;22.62;44.19
55934;BME280;41839;41.386;2.082;2023-04-10T13:18:53;100296.22;;;22.71;42.21
55934;BME280;41839;41.386;2.082;2023-04-10T13:21:18;100287.47;;;22.69;42.77
55934;BME280;41839;41.386;2.082;2023-04-10T13:23:47;100308.41;;;22.55;44.54
55934;BME280;41839;41.386;2.082;2023-04-10T13:26:13;100294.41;;;22.53;44.83
55934;BME280;41839;41.386;2.082;2023-04-10T13:28:38;100295.31;;;22.52;44.97
55934;BME280;41839;41.386;2.082;2023-04-10T13:31:04;100288.31;;;22.53;42.70
55934;BME280;41839;41.386;2.082;2023-04-10T13:33:30;100294.44;;;22.52;44.71
55934;BME280;41839;41.386;2.082;2023-04-10T13:35:55;100292.66;;;22.54;43.84
55934;BME280;41839;41.386;2.082;2023-04-10T13:38:21;100246.31;;;22.39;44.96
55934;BME280;41839;41.386;2.082;2023-04-10T13:40:46;100277.84;;;22.62;43.56
55934;BME280;41839;41.386;2.082;2023-04-10T13:43:12;100272.59;;;22.67;44.18
55934;BME280;41839;41.386;2.082;2023-04-10T13:45:38;100282.22;;;22.59;43.40
55934;BME280;41839;41.386;2.082;2023-04-10T13:48:03;100278.72;;;22.63;44.65